sensor_id;sensor_type;location;lat;lon;timestamp;P1;durP1;ratioP1;P2;durP2;ratioP2
74624;SDS011;63131;52.298;8.056;2022-11-20T00:00:50;23.35;;;12.30;;
74624;SDS011;63131;52.298;8.056;2022-11-20T00:03:15;24.02;;;11.90;;
74624;SDS011;63131;52.298;8.056;2022-11-20T00:05:42;22.17;;;12.57;;
74624;SDS011;63131;52.298;8.056;2022-11-20T00:08:07;26.05;;;12.90;;
74624;SDS011;63131;52.298;8.056;2022-11-20T00:10:32;25.08;;;12.07;;
74624;SDS011;63131;52.298;8.056;2022-11-20T00:13:01;27.25;;;12.07;;
74624;SDS011;63131;52.298;8.056;2022-11-20T00:15:26;25.23;;;12.00;;
74624;SDS011;63131;52.298;8.056;2022-11-20T00:17:51;24.27;;;11.55;;
74624;SDS011;63131;52.298;8.056;2022-11-20T00:20:17;20.55;;;11.18;;
74624;SDS011;63131;52.298;8.056;2022-11-20T00:22:42;21.60;;;11.40;;
74624;SDS011;63131;52.298;8.056;2022-11-20T00:25:07;21.10;;;10.90;;
74624;SDS011;63131;52.298;8.056;2022-11-20T00:27:33;19.85;;;11.20;;
74624;SDS011;63131;52.298;8.056;2022-11-20T00:29:58;24.23;;;11.18;;
74624;SDS011;63131;52.298;8.056;2022-11-20T00:32:23;25.55;;;11.15;;
74624;SDS011;63131;52.298;8.056;2022-11-20T00:34:49;21.40;;;10.98;;
74624;SDS011;63131;52.298;8.056;2022-11-20T00:37:14;22.27;;;11.73;;
74624;SDS011;63131;52.298;8.056;2022-11-20T00:39:39;20.00;;;11.52;;
74624;SDS011;63131;52.298;8.056;2022-11-20T00:42:05;23.80;;;10.93;;
74624;SDS011;63131;52.298;8.056;2022-11-20T00:44:30;21.27;;;11.07;;
74624;SDS011;63131;52.298;8.056;2022-11-20T00:46:55;24.77;;;11.52;;
74624;SDS011;63131;52.298;8.056;2022-11-20T00:49:21;24.05;;;12.30;;
74624;SDS011;63131;52.298;8.056;2022-11-20T00:51:46;26.27;;;13.15;;
74624;SDS011;63131;52.298;8.056;2022-11-20T00:54:11;18.88;;;10.63;;
74624;SDS011;63131;52.298;8.056;2022-11-20T00:56:37;22.15;;;10.75;;
74624;SDS011;63131;52.298;8.056;2022-11-20T00:59:02;21.13;;;10.60;;
74624;SDS011;63131;52.298;8.056;2022-11-20T01:01:28;26.38;;;10.82;;
74624;SDS011;63131;52.298;8.056;2022-11-20T01:03:57;21.88;;;11.77;;
74624;SDS011;63131;52.298;8.056;2022-11-20T01:06:27;20.38;;;11.10;;
74624;SDS011;63131;52.298;8.056;2022-11-20T01:09:01;23.65;;;10.40;;
74624;SDS011;63131;52.298;8.056;2022-11-20T01:11:30;20.67;;;10.73;;
74624;SDS011;63131;52.298;8.056;2022-11-20T01:13:57;25.35;;;10.85;;
74624;SDS011;63131;52.298;8.056;2022-11-20T01:16:28;22.42;;;10.65;;
74624;SDS011;63131;52.298;8.056;2022-11-20T01:18:55;22.55;;;9.80;;
74624;SDS011;63131;52.298;8.056;2022-11-20T01:21:23;23.45;;;11.05;;
74624;SDS011;63131;52.298;8.056;2022-11-20T01:23:51;25.90;;;10.95;;
74624;SDS011;63131;52.298;8.056;2022-11-20T01:26:17;19.45;;;10.80;;
74624;SDS011;63131;52.298;8.056;2022-11-20T01:28:45;24.50;;;11.85;;
74624;SDS011;63131;52.298;8.056;2022-11-20T01:31:14;23.17;;;11.48;;
74624;SDS011;63131;52.298;8.056;2022-11-20T01:33:40;22.15;;;10.43;;
74624;SDS011;63131;52.298;8.056;2022-11-20T01:36:06;25.45;;;11.88;;
74624;SDS011;63131;52.298;8.056;2022-11-20T01:38:32;25.70;;;13.23;;
74624;SDS011;63131;52.298;8.056;2022-11-20T01:40:57;20.05;;;9.63;;
74624;SDS011;63131;52.298;8.056;2022-11-20T01:43:23;23.60;;;11.35;;
74624;SDS011;63131;52.298;8.056;2022-11-20T01:49:10;21.88;;;11.18;;
74624;SDS011;63131;52.298;8.056;2022-11-20T01:51:37;17.83;;;9.95;;
74624;SDS011;63131;52.298;8.056;2022-11-20T01:54:07;21.65;;;11.35;;
74624;SDS011;63131;52.298;8.056;2022-11-20T01:56:35;21.73;;;11.93;;
74624;SDS011;63131;52.298;8.056;2022-11-20T01:59:02;20.88;;;11.50;;
74624;SDS011;63131;52.298;8.056;2022-11-20T02:01:30;21.13;;;11.05;;
74624;SDS011;63131;52.298;8.056;2022-11-20T02:03:55;19.98;;;10.73;;
74624;SDS011;63131;52.298;8.056;2022-11-20T02:06:25;24.95;;;11.25;;
74624;SDS011;63131;52.298;8.056;2022-11-20T02:08:53;21.88;;;10.93;;
74624;SDS011;63131;52.298;8.056;2022-11-20T02:11:19;19.35;;;10.55;;
74624;SDS011;63131;52.298;8.056;2022-11-20T02:13:44;22.48;;;11.07;;
74624;SDS011;63131;52.298;8.056;2022-11-20T02:18:53;22.75;;;10.95;;
74624;SDS011;63131;52.298;8.056;2022-11-20T02:26:48;24.95;;;10.18;;
74624;SDS011;63131;52.298;8.056;2022-11-20T02:29:16;20.35;;;9.73;;
74624;SDS011;63131;52.298;8.056;2022-11-20T02:31:44;19.58;;;10.45;;
74624;SDS011;63131;52.298;8.056;2022-11-20T02:34:10;24.42;;;9.60;;
74624;SDS011;63131;52.298;8.056;2022-11-20T02:36:36;17.73;;;9.75;;
74624;SDS011;63131;52.298;8.056;2022-11-20T02:39:03;20.27;;;9.75;;
74624;SDS011;63131;52.298;8.056;2022-11-20T02:41:36;19.63;;;9.73;;
74624;SDS011;63131;52.298;8.056;2022-11-20T02:44:02;18.52;;;9.88;;
74624;SDS011;63131;52.298;8.056;2022-11-20T02:46:29;26.85;;;12.00;;
74624;SDS011;63131;52.298;8.056;2022-11-20T02:48:55;20.58;;;10.90;;
74624;SDS011;63131;52.298;8.056;2022-11-20T02:51:20;17.98;;;9.63;;
74624;SDS011;63131;52.298;8.056;2022-11-20T02:53:46;20.83;;;9.95;;
74624;SDS011;63131;52.298;8.056;2022-11-20T02:56:11;21.75;;;9.70;;
74624;SDS011;63131;52.298;8.056;2022-11-20T02:58:36;18.73;;;8.75;;
74624;SDS011;63131;52.298;8.056;2022-11-20T03:01:01;21.25;;;9.60;;
74624;SDS011;63131;52.298;8.056;2022-11-20T03:03:27;23.23;;;9.25;;
74624;SDS011;63131;52.298;8.056;2022-11-20T03:05:52;23.50;;;10.02;;
74624;SDS011;63131;52.298;8.056;2022-11-20T03:08:17;16.88;;;9.65;;
74624;SDS011;63131;52.298;8.056;2022-11-20T03:10:43;21.83;;;9.52;;
74624;SDS011;63131;52.298;8.056;2022-11-20T03:13:08;21.17;;;10.27;;
74624;SDS011;63131;52.298;8.056;2022-11-20T03:15:35;21.52;;;9.65;;
74624;SDS011;63131;52.298;8.056;2022-11-20T03:18:01;18.83;;;9.77;;
74624;SDS011;63131;52.298;8.056;2022-11-20T03:20:26;20.48;;;8.63;;
74624;SDS011;63131;52.298;8.056;2022-11-20T03:22:53;17.48;;;8.30;;
74624;SDS011;63131;52.298;8.056;2022-11-20T03:25:19;22.02;;;9.95;;
74624;SDS011;63131;52.298;8.056;2022-11-20T03:27:44;20.00;;;9.57;;
74624;SDS011;63131;52.298;8.056;2022-11-20T03:30:09;20.73;;;9.95;;
74624;SDS011;63131;52.298;8.056;2022-11-20T03:32:35;16.85;;;8.30;;
74624;SDS011;63131;52.298;8.056;2022-11-20T03:35:00;16.20;;;8.90;;
74624;SDS011;63131;52.298;8.056;2022-11-20T03:37:25;21.50;;;9.38;;
74624;SDS011;63131;52.298;8.056;2022-11-20T03:39:51;18.55;;;9.00;;
74624;SDS011;63131;52.298;8.056;2022-11-20T03:42:16;19.65;;;8.68;;
74624;SDS011;63131;52.298;8.056;2022-11-20T03:45:00;18.40;;;8.77;;
74624;SDS011;63131;52.298;8.056;2022-11-20T03:47:25;14.88;;;8.48;;
74624;SDS011;63131;52.298;8.056;2022-11-20T03:49:51;18.55;;;8.45;;
74624;SDS011;63131;52.298;8.056;2022-11-20T03:52:16;19.48;;;8.65;;
74624;SDS011;63131;52.298;8.056;2022-11-20T03:54:42;16.25;;;8.05;;
74624;SDS011;63131;52.298;8.056;2022-11-20T03:57:07;17.90;;;8.55;;
74624;SDS011;63131;52.298;8.056;2022-11-20T03:59:32;18.25;;;8.48;;
74624;SDS011;63131;52.298;8.056;2022-11-20T04:01:57;21.38;;;9.90;;
74624;SDS011;63131;52.298;8.056;2022-11-20T04:04:23;21.50;;;8.88;;
74624;SDS011;63131;52.298;8.056;2022-11-20T04:06:48;19.98;;;9.60;;
74624;SDS011;63131;52.298;8.056;2022-11-20T04:09:13;17.00;;;8.43;;
74624;SDS011;63131;52.298;8.056;2022-11-20T04:11:39;15.85;;;8.07;;
74624;SDS011;63131;52.298;8.056;2022-11-20T04:14:06;16.17;;;7.50;;
74624;SDS011;63131;52.298;8.056;2022-11-20T04:16:34;15.30;;;7.50;;
74624;SDS011;63131;52.298;8.056;2022-11-20T04:19:01;15.60;;;6.63;;
74624;SDS011;63131;52.298;8.056;2022-11-20T04:21:28;17.45;;;7.78;;
74624;SDS011;63131;52.298;8.056;2022-11-20T04:23:53;15.18;;;6.65;;
74624;SDS011;63131;52.298;8.056;2022-11-20T04:26:20;16.33;;;7.35;;
74624;SDS011;63131;52.298;8.056;2022-11-20T04:28:45;19.55;;;8.55;;
74624;SDS011;63131;52.298;8.056;2022-11-20T04:31:12;16.27;;;7.65;;
74624;SDS011;63131;52.298;8.056;2022-11-20T04:33:42;18.50;;;7.05;;
74624;SDS011;63131;52.298;8.056;2022-11-20T04:36:11;17.15;;;7.47;;
74624;SDS011;63131;52.298;8.056;2022-11-20T04:38:37;15.95;;;8.15;;
74624;SDS011;63131;52.298;8.056;2022-11-20T04:41:03;15.10;;;7.10;;
74624;SDS011;63131;52.298;8.056;2022-11-20T04:43:30;17.88;;;7.22;;
74624;SDS011;63131;52.298;8.056;2022-11-20T04:45:56;17.30;;;8.50;;
74624;SDS011;63131;52.298;8.056;2022-11-20T04:48:23;18.67;;;8.73;;
74624;SDS011;63131;52.298;8.056;2022-11-20T04:50:48;13.00;;;6.65;;
74624;SDS011;63131;52.298;8.056;2022-11-20T04:53:14;19.15;;;7.90;;
74624;SDS011;63131;52.298;8.056;2022-11-20T04:55:39;16.95;;;6.00;;
74624;SDS011;63131;52.298;8.056;2022-11-20T04:58:05;15.52;;;7.43;;
74624;SDS011;63131;52.298;8.056;2022-11-20T05:00:31;13.32;;;6.75;;
74624;SDS011;63131;52.298;8.056;2022-11-20T05:02:56;17.88;;;6.78;;
74624;SDS011;63131;52.298;8.056;2022-11-20T05:05:21;15.32;;;7.22;;
74624;SDS011;63131;52.298;8.056;2022-11-20T05:07:47;18.23;;;7.38;;
74624;SDS011;63131;52.298;8.056;2022-11-20T05:10:12;15.35;;;7.03;;
74624;SDS011;63131;52.298;8.056;2022-11-20T05:12:38;14.95;;;7.20;;
74624;SDS011;63131;52.298;8.056;2022-11-20T05:15:03;13.40;;;6.35;;
74624;SDS011;63131;52.298;8.056;2022-11-20T05:17:28;18.27;;;6.97;;
74624;SDS011;63131;52.298;8.056;2022-11-20T05:19:54;15.98;;;7.55;;
74624;SDS011;63131;52.298;8.056;2022-11-20T05:22:19;15.68;;;7.00;;
74624;SDS011;63131;52.298;8.056;2022-11-20T05:24:44;13.48;;;6.47;;
74624;SDS011;63131;52.298;8.056;2022-11-20T05:27:10;16.48;;;6.93;;
74624;SDS011;63131;52.298;8.056;2022-11-20T05:29:35;14.65;;;6.68;;
74624;SDS011;63131;52.298;8.056;2022-11-20T05:32:00;15.48;;;5.90;;
74624;SDS011;63131;52.298;8.056;2022-11-20T05:34:26;14.07;;;6.68;;
74624;SDS011;63131;52.298;8.056;2022-11-20T05:36:51;11.27;;;6.40;;
74624;SDS011;63131;52.298;8.056;2022-11-20T05:39:16;15.93;;;6.75;;
74624;SDS011;63131;52.298;8.056;2022-11-20T05:41:42;14.57;;;7.68;;
74624;SDS011;63131;52.298;8.056;2022-11-20T05:44:09;13.25;;;5.65;;
74624;SDS011;63131;52.298;8.056;2022-11-20T05:46:35;15.93;;;6.25;;
74624;SDS011;63131;52.298;8.056;2022-11-20T05:49:01;12.85;;;6.22;;
74624;SDS011;63131;52.298;8.056;2022-11-20T05:51:26;16.83;;;7.15;;
74624;SDS011;63131;52.298;8.056;2022-11-20T05:53:52;15.18;;;6.88;;
74624;SDS011;63131;52.298;8.056;2022-11-20T05:56:18;12.50;;;5.95;;
74624;SDS011;63131;52.298;8.056;2022-11-20T05:58:44;14.07;;;5.97;;
74624;SDS011;63131;52.298;8.056;2022-11-20T06:01:17;17.15;;;6.35;;
74624;SDS011;63131;52.298;8.056;2022-11-20T06:03:47;15.35;;;6.47;;
74624;SDS011;63131;52.298;8.056;2022-11-20T06:06:16;15.40;;;6.57;;
74624;SDS011;63131;52.298;8.056;2022-11-20T06:08:42;16.67;;;5.90;;
74624;SDS011;63131;52.298;8.056;2022-11-20T06:11:09;13.95;;;6.03;;
74624;SDS011;63131;52.298;8.056;2022-11-20T06:13:35;14.07;;;5.70;;
74624;SDS011;63131;52.298;8.056;2022-11-20T06:16:01;16.20;;;6.35;;
74624;SDS011;63131;52.298;8.056;2022-11-20T06:18:27;15.60;;;7.13;;
74624;SDS011;63131;52.298;8.056;2022-11-20T06:21:02;12.68;;;6.32;;
74624;SDS011;63131;52.298;8.056;2022-11-20T06:23:32;12.40;;;6.15;;
74624;SDS011;63131;52.298;8.056;2022-11-20T06:26:01;16.35;;;6.03;;
74624;SDS011;63131;52.298;8.056;2022-11-20T06:28:36;16.10;;;6.18;;
74624;SDS011;63131;52.298;8.056;2022-11-20T06:31:02;14.02;;;5.65;;
74624;SDS011;63131;52.298;8.056;2022-11-20T06:33:28;13.35;;;6.25;;
74624;SDS011;63131;52.298;8.056;2022-11-20T06:35:57;14.57;;;5.88;;
74624;SDS011;63131;52.298;8.056;2022-11-20T06:38:24;14.88;;;6.53;;
74624;SDS011;63131;52.298;8.056;2022-11-20T06:40:50;17.25;;;6.63;;
74624;SDS011;63131;52.298;8.056;2022-11-20T06:43:15;14.55;;;7.15;;
74624;SDS011;63131;52.298;8.056;2022-11-20T06:45:40;15.02;;;6.50;;
74624;SDS011;63131;52.298;8.056;2022-11-20T06:48:06;13.10;;;5.45;;
74624;SDS011;63131;52.298;8.056;2022-11-20T06:50:31;17.70;;;6.53;;
74624;SDS011;63131;52.298;8.056;2022-11-20T06:52:59;15.10;;;7.93;;
74624;SDS011;63131;52.298;8.056;2022-11-20T06:55:25;17.13;;;7.93;;
74624;SDS011;63131;52.298;8.056;2022-11-20T06:57:51;17.88;;;8.82;;
74624;SDS011;63131;52.298;8.056;2022-11-20T07:00:16;18.35;;;8.52;;
74624;SDS011;63131;52.298;8.056;2022-11-20T07:02:41;15.27;;;7.20;;
74624;SDS011;63131;52.298;8.056;2022-11-20T07:05:07;18.15;;;7.70;;
74624;SDS011;63131;52.298;8.056;2022-11-20T07:07:32;13.82;;;6.00;;
74624;SDS011;63131;52.298;8.056;2022-11-20T07:09:57;14.10;;;7.70;;
74624;SDS011;63131;52.298;8.056;2022-11-20T07:12:23;17.25;;;8.13;;
74624;SDS011;63131;52.298;8.056;2022-11-20T07:14:48;16.73;;;7.07;;
74624;SDS011;63131;52.298;8.056;2022-11-20T07:17:14;16.92;;;7.40;;
74624;SDS011;63131;52.298;8.056;2022-11-20T07:19:39;16.48;;;7.35;;
74624;SDS011;63131;52.298;8.056;2022-11-20T07:22:04;18.92;;;8.50;;
74624;SDS011;63131;52.298;8.056;2022-11-20T07:24:30;17.92;;;8.02;;
74624;SDS011;63131;52.298;8.056;2022-11-20T07:26:55;15.15;;;7.82;;
74624;SDS011;63131;52.298;8.056;2022-11-20T07:29:20;17.25;;;7.40;;
74624;SDS011;63131;52.298;8.056;2022-11-20T07:31:46;18.98;;;8.48;;
74624;SDS011;63131;52.298;8.056;2022-11-20T07:34:11;17.08;;;8.90;;
74624;SDS011;63131;52.298;8.056;2022-11-20T07:36:36;17.75;;;7.85;;
74624;SDS011;63131;52.298;8.056;2022-11-20T07:39:02;17.75;;;8.73;;
74624;SDS011;63131;52.298;8.056;2022-11-20T07:41:27;21.75;;;10.52;;
74624;SDS011;63131;52.298;8.056;2022-11-20T07:43:54;19.98;;;10.00;;
74624;SDS011;63131;52.298;8.056;2022-11-20T07:46:19;17.20;;;8.52;;
74624;SDS011;63131;52.298;8.056;2022-11-20T07:48:44;18.10;;;7.88;;
74624;SDS011;63131;52.298;8.056;2022-11-20T07:51:10;16.00;;;8.23;;
74624;SDS011;63131;52.298;8.056;2022-11-20T07:53:35;17.48;;;8.35;;
74624;SDS011;63131;52.298;8.056;2022-11-20T07:56:01;16.73;;;7.93;;
74624;SDS011;63131;52.298;8.056;2022-11-20T07:58:26;17.95;;;8.13;;
74624;SDS011;63131;52.298;8.056;2022-11-20T08:00:53;19.85;;;8.20;;
74624;SDS011;63131;52.298;8.056;2022-11-20T08:03:19;16.27;;;7.88;;
74624;SDS011;63131;52.298;8.056;2022-11-20T08:05:44;15.80;;;8.15;;
74624;SDS011;63131;52.298;8.056;2022-11-20T08:08:10;16.67;;;8.40;;
74624;SDS011;63131;52.298;8.056;2022-11-20T08:10:35;16.73;;;8.68;;
74624;SDS011;63131;52.298;8.056;2022-11-20T08:13:00;17.92;;;8.70;;
74624;SDS011;63131;52.298;8.056;2022-11-20T08:15:47;17.10;;;7.60;;
74624;SDS011;63131;52.298;8.056;2022-11-20T08:18:15;16.17;;;8.18;;
74624;SDS011;63131;52.298;8.056;2022-11-20T08:20:40;16.45;;;8.85;;
74624;SDS011;63131;52.298;8.056;2022-11-20T08:23:06;18.13;;;9.15;;
74624;SDS011;63131;52.298;8.056;2022-11-20T08:25:36;16.23;;;8.25;;
74624;SDS011;63131;52.298;8.056;2022-11-20T08:28:04;16.55;;;7.05;;
74624;SDS011;63131;52.298;8.056;2022-11-20T08:30:31;16.08;;;7.95;;
74624;SDS011;63131;52.298;8.056;2022-11-20T08:33:00;15.32;;;7.72;;
74624;SDS011;63131;52.298;8.056;2022-11-20T08:35:27;15.35;;;7.35;;
74624;SDS011;63131;52.298;8.056;2022-11-20T08:37:52;19.00;;;8.25;;
74624;SDS011;63131;52.298;8.056;2022-11-20T08:40:18;16.27;;;7.55;;
74624;SDS011;63131;52.298;8.056;2022-11-20T08:42:49;15.05;;;6.85;;
74624;SDS011;63131;52.298;8.056;2022-11-20T08:45:16;15.32;;;7.68;;
74624;SDS011;63131;52.298;8.056;2022-11-20T08:50:08;15.90;;;6.70;;
74624;SDS011;63131;52.298;8.056;2022-11-20T08:52:34;17.02;;;7.60;;
74624;SDS011;63131;52.298;8.056;2022-11-20T08:55:00;15.70;;;6.85;;
74624;SDS011;63131;52.298;8.056;2022-11-20T08:57:25;14.77;;;6.13;;
74624;SDS011;63131;52.298;8.056;2022-11-20T08:59:50;13.85;;;6.57;;
74624;SDS011;63131;52.298;8.056;2022-11-20T09:02:16;19.35;;;7.90;;
74624;SDS011;63131;52.298;8.056;2022-11-20T09:04:41;19.75;;;8.07;;
74624;SDS011;63131;52.298;8.056;2022-11-20T09:07:06;16.98;;;7.57;;
74624;SDS011;63131;52.298;8.056;2022-11-20T09:09:31;15.95;;;8.02;;
74624;SDS011;63131;52.298;8.056;2022-11-20T09:11:57;16.25;;;8.02;;
74624;SDS011;63131;52.298;8.056;2022-11-20T09:14:23;16.55;;;7.82;;
74624;SDS011;63131;52.298;8.056;2022-11-20T09:16:53;16.95;;;8.05;;
74624;SDS011;63131;52.298;8.056;2022-11-20T09:19:19;15.43;;;7.40;;
74624;SDS011;63131;52.298;8.056;2022-11-20T09:21:44;16.58;;;8.25;;
74624;SDS011;63131;52.298;8.056;2022-11-20T09:24:10;14.25;;;7.70;;
74624;SDS011;63131;52.298;8.056;2022-11-20T09:26:35;17.85;;;7.75;;
74624;SDS011;63131;52.298;8.056;2022-11-20T09:29:00;16.30;;;8.65;;
74624;SDS011;63131;52.298;8.056;2022-11-20T09:31:26;21.13;;;9.70;;
74624;SDS011;63131;52.298;8.056;2022-11-20T09:33:51;14.55;;;8.05;;
74624;SDS011;63131;52.298;8.056;2022-11-20T09:36:16;15.90;;;7.97;;
74624;SDS011;63131;52.298;8.056;2022-11-20T09:41:29;16.52;;;7.25;;
74624;SDS011;63131;52.298;8.056;2022-11-20T09:49:43;18.15;;;9.23;;
74624;SDS011;63131;52.298;8.056;2022-11-20T09:52:27;15.82;;;7.93;;
74624;SDS011;63131;52.298;8.056;2022-11-20T09:55:02;17.85;;;7.53;;
74624;SDS011;63131;52.298;8.056;2022-11-20T09:57:38;18.23;;;8.63;;
74624;SDS011;63131;52.298;8.056;2022-11-20T10:00:08;16.02;;;8.30;;
74624;SDS011;63131;52.298;8.056;2022-11-20T10:05:04;15.27;;;7.20;;
74624;SDS011;63131;52.298;8.056;2022-11-20T10:07:36;16.67;;;7.65;;
74624;SDS011;63131;52.298;8.056;2022-11-20T10:10:03;16.33;;;6.68;;
74624;SDS011;63131;52.298;8.056;2022-11-20T10:12:35;16.52;;;7.38;;
74624;SDS011;63131;52.298;8.056;2022-11-20T10:18:08;18.48;;;7.88;;
74624;SDS011;63131;52.298;8.056;2022-11-20T10:25:47;20.48;;;8.63;;
74624;SDS011;63131;52.298;8.056;2022-11-20T10:28:45;21.63;;;8.68;;
74624;SDS011;63131;52.298;8.056;2022-11-20T10:31:26;18.38;;;8.18;;
74624;SDS011;63131;52.298;8.056;2022-11-20T10:33:54;21.05;;;7.70;;
74624;SDS011;63131;52.298;8.056;2022-11-20T10:36:29;22.35;;;7.35;;
74624;SDS011;63131;52.298;8.056;2022-11-20T10:41:46;22.90;;;9.77;;
74624;SDS011;63131;52.298;8.056;2022-11-20T10:44:15;19.35;;;8.07;;
74624;SDS011;63131;52.298;8.056;2022-11-20T10:47:08;19.60;;;8.70;;
74624;SDS011;63131;52.298;8.056;2022-11-20T10:49:38;24.27;;;8.98;;
74624;SDS011;63131;52.298;8.056;2022-11-20T10:55:06;28.17;;;10.77;;
74624;SDS011;63131;52.298;8.056;2022-11-20T11:00:42;26.77;;;9.57;;
74624;SDS011;63131;52.298;8.056;2022-11-20T11:03:26;25.38;;;10.95;;
74624;SDS011;63131;52.298;8.056;2022-11-20T11:06:03;20.65;;;8.35;;
74624;SDS011;63131;52.298;8.056;2022-11-20T11:08:39;34.55;;;11.63;;
74624;SDS011;63131;52.298;8.056;2022-11-20T11:14:10;21.75;;;9.27;;
74624;SDS011;63131;52.298;8.056;2022-11-20T11:16:41;23.70;;;9.57;;
74624;SDS011;63131;52.298;8.056;2022-11-20T11:19:15;23.98;;;12.25;;
74624;SDS011;63131;52.298;8.056;2022-11-20T11:21:46;29.08;;;11.27;;
74624;SDS011;63131;52.298;8.056;2022-11-20T11:26:58;20.20;;;8.73;;
74624;SDS011;63131;52.298;8.056;2022-11-20T11:29:31;25.70;;;9.32;;
74624;SDS011;63131;52.298;8.056;2022-11-20T11:34:33;23.23;;;10.27;;
74624;SDS011;63131;52.298;8.056;2022-11-20T11:36:59;21.73;;;9.38;;
74624;SDS011;63131;52.298;8.056;2022-11-20T11:39:26;22.40;;;9.40;;
74624;SDS011;63131;52.298;8.056;2022-11-20T11:41:52;23.70;;;9.18;;
74624;SDS011;63131;52.298;8.056;2022-11-20T11:44:21;19.70;;;8.55;;
74624;SDS011;63131;52.298;8.056;2022-11-20T11:47:15;20.88;;;8.00;;
74624;SDS011;63131;52.298;8.056;2022-11-20T11:50:00;21.48;;;9.30;;
74624;SDS011;63131;52.298;8.056;2022-11-20T11:55:13;19.65;;;8.68;;
74624;SDS011;63131;52.298;8.056;2022-11-20T11:57:46;18.13;;;8.25;;
74624;SDS011;63131;52.298;8.056;2022-11-20T12:00:31;20.73;;;8.40;;
74624;SDS011;63131;52.298;8.056;2022-11-20T12:16:10;23.20;;;10.07;;
74624;SDS011;63131;52.298;8.056;2022-11-20T12:18:38;17.55;;;8.73;;
74624;SDS011;63131;52.298;8.056;2022-11-20T12:23:49;18.42;;;8.63;;
74624;SDS011;63131;52.298;8.056;2022-11-20T12:37:46;16.30;;;6.97;;
74624;SDS011;63131;52.298;8.056;2022-11-20T12:46:06;21.23;;;8.02;;
74624;SDS011;63131;52.298;8.056;2022-11-20T13:00:09;21.50;;;9.65;;
74624;SDS011;63131;52.298;8.056;2022-11-20T13:08:27;21.42;;;9.02;;
74624;SDS011;63131;52.298;8.056;2022-11-20T13:16:24;19.27;;;8.40;;
74624;SDS011;63131;52.298;8.056;2022-11-20T13:19:02;20.27;;;8.25;;
74624;SDS011;63131;52.298;8.056;2022-11-20T13:21:36;17.67;;;7.90;;
74624;SDS011;63131;52.298;8.056;2022-11-20T13:24:05;18.17;;;9.00;;
74624;SDS011;63131;52.298;8.056;2022-11-20T13:29:32;18.90;;;9.55;;
74624;SDS011;63131;52.298;8.056;2022-11-20T13:32:03;20.25;;;10.45;;
74624;SDS011;63131;52.298;8.056;2022-11-20T13:34:37;20.90;;;9.60;;
74624;SDS011;63131;52.298;8.056;2022-11-20T13:37:02;21.67;;;9.52;;
74624;SDS011;63131;52.298;8.056;2022-11-20T13:39:31;20.63;;;10.25;;
74624;SDS011;63131;52.298;8.056;2022-11-20T13:41:59;20.85;;;10.40;;
74624;SDS011;63131;52.298;8.056;2022-11-20T13:44:54;25.63;;;10.45;;
74624;SDS011;63131;52.298;8.056;2022-11-20T13:47:21;24.45;;;9.93;;
74624;SDS011;63131;52.298;8.056;2022-11-20T13:49:47;22.50;;;10.52;;
74624;SDS011;63131;52.298;8.056;2022-11-20T13:55:16;19.65;;;9.23;;
74624;SDS011;63131;52.298;8.056;2022-11-20T13:58:02;21.95;;;10.32;;
74624;SDS011;63131;52.298;8.056;2022-11-20T14:00:32;21.08;;;10.23;;
74624;SDS011;63131;52.298;8.056;2022-11-20T14:03:04;19.65;;;10.48;;
74624;SDS011;63131;52.298;8.056;2022-11-20T14:05:38;23.30;;;12.98;;
74624;SDS011;63131;52.298;8.056;2022-11-20T14:08:06;23.08;;;11.15;;
74624;SDS011;63131;52.298;8.056;2022-11-20T14:10:38;23.90;;;10.75;;
74624;SDS011;63131;52.298;8.056;2022-11-20T14:13:37;19.60;;;10.25;;
74624;SDS011;63131;52.298;8.056;2022-11-20T14:15:58;20.98;;;9.88;;
74624;SDS011;63131;52.298;8.056;2022-11-20T14:18:25;30.08;;;19.45;;
74624;SDS011;63131;52.298;8.056;2022-11-20T14:20:51;26.20;;;14.57;;
74624;SDS011;63131;52.298;8.056;2022-11-20T14:23:26;20.27;;;11.77;;
74624;SDS011;63131;52.298;8.056;2022-11-20T14:25:53;22.35;;;11.77;;
74624;SDS011;63131;52.298;8.056;2022-11-20T14:28:24;24.88;;;11.65;;
74624;SDS011;63131;52.298;8.056;2022-11-20T14:30:54;22.35;;;12.23;;
74624;SDS011;63131;52.298;8.056;2022-11-20T14:33:20;24.38;;;11.52;;
74624;SDS011;63131;52.298;8.056;2022-11-20T14:35:50;23.70;;;10.27;;
74624;SDS011;63131;52.298;8.056;2022-11-20T14:38:19;24.20;;;11.88;;
74624;SDS011;63131;52.298;8.056;2022-11-20T14:40:47;21.92;;;12.10;;
74624;SDS011;63131;52.298;8.056;2022-11-20T14:43:22;22.27;;;12.00;;
74624;SDS011;63131;52.298;8.056;2022-11-20T14:45:57;20.65;;;9.57;;
74624;SDS011;63131;52.298;8.056;2022-11-20T14:48:25;17.98;;;9.75;;
74624;SDS011;63131;52.298;8.056;2022-11-20T14:50:54;20.83;;;11.32;;
74624;SDS011;63131;52.298;8.056;2022-11-20T14:53:23;21.35;;;9.93;;
74624;SDS011;63131;52.298;8.056;2022-11-20T14:55:54;17.73;;;8.48;;
74624;SDS011;63131;52.298;8.056;2022-11-20T14:58:25;21.80;;;10.45;;
74624;SDS011;63131;52.298;8.056;2022-11-20T15:03:30;20.50;;;9.43;;
74624;SDS011;63131;52.298;8.056;2022-11-20T15:05:56;20.77;;;9.60;;
74624;SDS011;63131;52.298;8.056;2022-11-20T15:08:21;19.27;;;9.57;;
74624;SDS011;63131;52.298;8.056;2022-11-20T15:10:50;20.73;;;10.65;;
74624;SDS011;63131;52.298;8.056;2022-11-20T15:13:19;19.77;;;9.40;;
74624;SDS011;63131;52.298;8.056;2022-11-20T15:15:48;18.20;;;10.07;;
74624;SDS011;63131;52.298;8.056;2022-11-20T15:18:28;18.38;;;8.82;;
74624;SDS011;63131;52.298;8.056;2022-11-20T15:20:56;19.95;;;9.48;;
74624;SDS011;63131;52.298;8.056;2022-11-20T15:23:23;21.85;;;11.80;;
74624;SDS011;63131;52.298;8.056;2022-11-20T15:25:49;19.45;;;9.93;;
74624;SDS011;63131;52.298;8.056;2022-11-20T15:31:06;17.83;;;8.15;;
74624;SDS011;63131;52.298;8.056;2022-11-20T15:33:36;15.88;;;7.68;;
74624;SDS011;63131;52.298;8.056;2022-11-20T15:36:01;18.52;;;8.57;;
74624;SDS011;63131;52.298;8.056;2022-11-20T15:38:27;17.58;;;8.68;;
74624;SDS011;63131;52.298;8.056;2022-11-20T15:40:52;20.17;;;10.88;;
74624;SDS011;63131;52.298;8.056;2022-11-20T15:43:17;19.05;;;10.13;;
74624;SDS011;63131;52.298;8.056;2022-11-20T15:45:44;22.25;;;11.35;;
74624;SDS011;63131;52.298;8.056;2022-11-20T15:48:12;20.35;;;9.95;;
74624;SDS011;63131;52.298;8.056;2022-11-20T15:50:42;19.83;;;10.07;;
74624;SDS011;63131;52.298;8.056;2022-11-20T15:53:11;21.42;;;10.55;;
74624;SDS011;63131;52.298;8.056;2022-11-20T15:55:37;22.65;;;10.95;;
74624;SDS011;63131;52.298;8.056;2022-11-20T15:58:02;18.98;;;10.80;;
74624;SDS011;63131;52.298;8.056;2022-11-20T16:00:27;19.02;;;10.75;;
74624;SDS011;63131;52.298;8.056;2022-11-20T16:02:53;18.73;;;11.88;;
74624;SDS011;63131;52.298;8.056;2022-11-20T16:05:18;23.20;;;11.85;;
74624;SDS011;63131;52.298;8.056;2022-11-20T16:07:43;20.00;;;9.90;;
74624;SDS011;63131;52.298;8.056;2022-11-20T16:10:09;19.92;;;10.00;;
74624;SDS011;63131;52.298;8.056;2022-11-20T16:12:34;22.73;;;11.38;;
74624;SDS011;63131;52.298;8.056;2022-11-20T16:15:18;20.67;;;10.13;;
74624;SDS011;63131;52.298;8.056;2022-11-20T16:18:02;18.67;;;9.52;;
74624;SDS011;63131;52.298;8.056;2022-11-20T16:20:27;19.85;;;9.15;;
74624;SDS011;63131;52.298;8.056;2022-11-20T16:22:54;18.20;;;8.88;;
74624;SDS011;63131;52.298;8.056;2022-11-20T16:25:19;18.48;;;8.48;;
74624;SDS011;63131;52.298;8.056;2022-11-20T16:27:45;18.95;;;10.25;;
74624;SDS011;63131;52.298;8.056;2022-11-20T16:30:10;18.33;;;11.15;;
74624;SDS011;63131;52.298;8.056;2022-11-20T16:32:35;21.38;;;11.25;;
74624;SDS011;63131;52.298;8.056;2022-11-20T16:35:01;18.35;;;8.63;;